Time;durP1;ratioP1;P1;durP2;ratioP2;P2;SDS_P1;SDS_P2;PMS_P1;PMS_P2;Temp;Humidity;BMP_temperature;BMP_pressure;BME280_temperature;BME280_humidity;BME280_pressure;Samples;Min_cycle;Max_cycle;Signal;HPM_P1;HPM_P2
2023/04/29 00:00:01;;;;;;;;;25.33;22.33;;;;;13.15;91.86;101331.88;5034022;27;45461;-69
2023/04/29 00:02:27;;;;;;;;;29.33;26.00;;;;;13.43;90.97;101381.50;5033990;28;45463;-69
2023/04/29 00:04:53;;;;;;;;;30.33;25.33;;;;;13.30;91.03;101368.53;5033987;28;45300;-69
2023/04/29 00:07:18;;;;;;;;;26.33;21.33;;;;;13.20;90.25;101346.72;5034445;27;45304;-69
2023/04/29 00:09:44;;;;;;;;;24.00;21.00;;;;;13.31;90.71;101367.63;5033775;28;46594;-69
2023/04/29 00:12:09;;;;;;;;;31.67;27.67;;;;;13.38;90.39;101377.19;5033824;28;45273;-68
2023/04/29 00:14:35;;;;;;;;;29.67;22.67;;;;;13.38;89.84;101386.91;5034286;27;45467;-68
2023/04/29 00:17:00;;;;;;;;;33.67;31.67;;;;;13.24;89.56;101369.56;5035725;27;45261;-69
2023/04/29 00:19:26;;;;;;;;;33.33;30.00;;;;;13.27;89.84;101380.97;5018995;28;46247;-69
2023/04/29 00:21:53;;;;;;;;;45.67;32.67;;;;;13.09;88.69;101348.75;5036735;27;45331;-69
2023/04/29 00:24:19;;;;;;;;;48.00;38.00;;;;;13.25;88.04;101375.72;5037025;28;45269;-69
2023/04/29 00:26:44;;;;;;;;;53.67;38.00;;;;;13.19;87.94;101375.84;5037123;27;45229;-69
2023/04/29 00:29:09;;;;;;;;;49.00;37.00;;;;;13.17;87.53;101375.00;5036786;28;46167;-69
2023/04/29 00:31:36;;;;;;;;;50.00;38.33;;;;;13.12;85.95;101371.63;5036849;28;45449;-69
2023/04/29 00:34:01;;;;;;;;;48.00;38.67;;;;;13.18;85.57;101398.78;5036867;28;45533;-67
2023/04/29 00:36:27;;;;;;;;;52.67;40.33;;;;;13.07;84.71;101379.66;5036935;28;45334;-68
2023/04/29 00:38:52;;;;;;;;;47.33;36.33;;;;;13.05;85.78;101390.25;5036577;28;45380;-68
2023/04/29 00:41:18;;;;;;;;;45.00;35.33;;;;;12.93;85.00;101381.75;5036641;28;45445;-69
2023/04/29 00:43:43;;;;;;;;;44.33;33.00;;;;;13.01;84.74;101400.94;5035522;27;45454;-68
2023/04/29 00:46:09;;;;;;;;;46.67;35.67;;;;;12.85;85.12;101388.06;5036896;28;45346;-69
2023/04/29 00:48:34;;;;;;;;;46.00;36.33;;;;;12.89;85.45;101405.59;5036387;28;46538;-69
2023/04/29 00:51:00;;;;;;;;;45.67;35.67;;;;;12.87;83.77;101399.47;5036551;28;45328;-70
2023/04/29 00:53:26;;;;;;;;;35.67;32.33;;;;;12.86;84.34;101405.66;5036681;27;45422;-69
2023/04/29 00:55:52;;;;;;;;;39.67;33.00;;;;;12.82;83.92;101404.00;5036719;27;45344;-69
2023/04/29 00:58:18;;;;;;;;;44.33;33.00;;;;;12.87;83.03;101410.03;5036356;27;46929;-69
2023/04/29 01:00:45;;;;;;;;;39.33;32.33;;;;;12.81;81.65;101404.91;5036425;27;45327;-69
2023/04/29 01:03:12;;;;;;;;;40.33;33.33;;;;;12.79;82.52;101406.69;5036582;27;45265;-70
2023/04/29 01:05:37;;;;;;;;;38.67;31.67;;;;;12.77;84.29;101405.84;5036691;28;45379;-69
2023/04/29 01:08:12;;;;;;;;;42.67;32.67;;;;;12.78;82.02;101410.25;5036045;28;47326;-69
2023/04/29 01:10:54;;;;;;;;;45.67;34.33;;;;;12.65;83.46;101387.59;5036389;27;45265;-69
2023/04/29 01:13:32;;;;;;;;;40.67;32.33;;;;;12.71;82.88;101406.00;5036343;27;45399;-69
2023/04/29 01:16:02;;;;;;;;;38.67;32.67;;;;;12.65;82.63;101401.72;5036461;28;45557;-69
2023/04/29 01:18:48;;;;;;;;;38.33;33.33;;;;;12.65;82.60;101409.63;5036145;28;46708;-70
2023/04/29 01:21:14;;;;;;;;;40.67;33.33;;;;;12.58;82.82;101394.81;5036200;28;45353;-70
2023/04/29 01:23:40;;;;;;;;;39.00;33.00;;;;;12.59;84.22;101403.59;5036054;27;45423;-70
2023/04/29 01:26:07;;;;;;;;;32.00;27.33;;;;;12.63;83.63;101407.91;5036507;27;45460;-70
2023/04/29 01:28:50;;;;;;;;;36.00;31.00;;;;;12.64;83.86;101415.81;5036363;27;45292;-70
2023/04/29 01:31:35;;;;;;;;;36.67;31.33;;;;;12.65;82.35;101416.66;5036037;28;45380;-70
2023/04/29 01:34:13;;;;;;;;;35.33;30.67;;;;;12.62;82.48;101409.69;5036214;27;45387;-69
2023/04/29 01:36:56;;;;;;;;;37.67;33.33;;;;;12.58;82.60;101410.66;5036224;28;45317;-70
2023/04/29 01:39:32;;;;;;;;;36.33;32.00;;;;;12.57;82.52;101410.69;5035789;28;46266;-69
2023/04/29 01:42:10;;;;;;;;;33.00;29.67;;;;;12.56;83.19;101412.44;5035894;28;45323;-69
2023/04/29 01:44:37;;;;;;;;;42.00;34.00;;;;;12.48;82.60;101402.03;5035923;27;45301;-68
2023/04/29 01:47:02;;;;;;;;;35.33;31.33;;;;;12.47;81.62;101407.34;5036020;28;45343;-68
2023/04/29 01:49:28;;;;;;;;;33.67;32.00;;;;;12.49;82.31;101416.09;5035881;28;45711;-70
2023/04/29 01:51:54;;;;;;;;;40.33;35.67;;;;;12.51;81.51;101411.69;5035966;28;45376;-70
2023/04/29 01:54:20;;;;;;;;;38.00;28.67;;;;;12.49;82.31;101417.00;5035825;28;45414;-70
2023/04/29 01:56:46;;;;;;;;;37.00;32.33;;;;;12.51;82.68;101411.69;5036082;27;45353;-69
2023/04/29 01:59:11;;;;;;;;;34.33;31.00;;;;;12.46;82.54;101409.13;5035484;28;46245;-70
2023/04/29 02:01:37;;;;;;;;;37.67;33.00;;;;;12.47;82.02;101402.94;5035754;28;45405;-69
2023/04/29 02:04:02;;;;;;;;;31.33;27.33;;;;;12.35;81.79;101396.13;5035885;28;45143;-70
2023/04/29 02:06:28;;;;;;;;;38.33;28.67;;;;;12.41;80.95;101404.84;5036111;27;45552;-69
2023/04/29 02:08:53;;;;;;;;;38.00;32.00;;;;;12.19;80.93;101378.84;5035613;27;45499;-70
2023/04/29 02:11:18;;;;;;;;;40.00;32.00;;;;;12.32;81.99;101409.41;5035442;28;45332;-69
2023/04/29 02:13:44;;;;;;;;;37.00;32.00;;;;;12.30;80.32;101410.31;5035878;28;45655;-69
2023/04/29 02:16:11;;;;;;;;;38.33;31.00;;;;;12.35;81.50;101419.03;5035799;28;45432;-70
2023/04/29 02:18:37;;;;;;;;;35.33;31.00;;;;;12.28;81.03;101410.34;5035556;28;45337;-69
2023/04/29 02:21:03;;;;;;;;;39.00;32.67;;;;;11.94;79.28;101358.22;5035526;28;45395;-69
2023/04/29 02:23:29;;;;;;;;;32.33;31.00;;;;;12.24;80.09;101407.81;5035498;27;45443;-70
2023/04/29 02:25:55;;;;;;;;;47.33;34.00;;;;;12.25;79.20;101420.13;5035637;27;45440;-69
2023/04/29 02:28:22;;;;;;;;;33.00;27.67;;;;;12.18;79.14;101408.78;5035350;28;45343;-70
2023/04/29 02:30:47;;;;;;;;;41.33;34.33;;;;;12.17;79.86;101415.00;5035521;27;45869;-69
2023/04/29 02:33:13;;;;;;;;;35.00;31.33;;;;;12.11;78.30;101410.69;5035513;28;45313;-69
2023/04/29 02:35:38;;;;;;;;;36.33;31.00;;;;;12.07;79.76;101419.56;5035439;28;45624;-69
2023/04/29 02:38:03;;;;;;;;;38.00;33.33;;;;;12.06;80.12;101420.44;5034646;28;46483;-69
2023/04/29 02:40:29;;;;;;;;;38.33;33.67;;;;;12.10;80.14;101429.19;5017459;27;45364;-69
2023/04/29 02:42:54;;;;;;;;;46.00;33.00;;;;;12.09;80.58;101433.59;5035202;27;45190;-68
2023/04/29 02:45:20;;;;;;;;;42.67;33.33;;;;;12.02;79.33;101418.75;5035488;28;45386;-70
2023/04/29 02:47:45;;;;;;;;;33.33;31.33;;;;;11.98;78.91;101417.97;5034972;27;47154;-69
2023/04/29 02:50:11;;;;;;;;;38.33;34.67;;;;;11.98;79.31;101428.50;5035115;28;45431;-70
2023/04/29 02:52:36;;;;;;;;;36.67;31.67;;;;;12.04;79.77;101434.56;5035321;28;45381;-69
2023/04/29 02:55:02;;;;;;;;;45.00;32.67;;;;;12.00;80.06;101425.84;5035617;27;45211;-69
2023/04/29 02:57:28;;;;;;;;;86.75;80.75;;;;;12.07;79.86;101443.31;5035005;28;45840;-68
2023/04/29 02:59:54;;;;;;;;;40.33;35.00;;;;;12.07;78.94;101443.31;5034964;28;45308;-68
2023/04/29 03:02:19;;;;;;;;;40.67;33.00;;;;;11.93;80.11;101425.06;5035025;28;45430;-70
2023/04/29 03:04:45;;;;;;;;;43.67;35.67;;;;;12.10;79.57;101447.69;5035222;28;45326;-68
2023/04/29 03:07:10;;;;;;;;;41.00;34.00;;;;;12.06;79.53;101444.22;5034972;27;46676;-69
2023/04/29 03:09:36;;;;;;;;;42.00;34.00;;;;;12.07;80.14;101456.50;5034868;28;45441;-69
2023/04/29 03:12:01;;;;;;;;;39.00;31.33;;;;;12.04;80.15;101451.28;5034917;28;45430;-69
2023/04/29 03:14:27;;;;;;;;;35.67;31.00;;;;;12.10;79.27;101464.38;5035074;28;45367;-69
2023/04/29 03:16:55;;;;;;;;;42.00;35.00;;;;;11.87;79.09;101425.16;5031939;28;46292;-68
2023/04/29 03:19:20;;;;;;;;;43.67;32.67;;;;;12.06;79.50;101460.03;5020631;28;45759;-70
2023/04/29 03:21:45;;;;;;;;;37.67;32.00;;;;;12.07;78.62;101471.47;5019954;28;45275;-70
2023/04/29 03:24:11;;;;;;;;;36.67;31.00;;;;;11.94;79.33;101461.13;5014914;28;45389;-70
2023/04/29 03:26:36;;;;;;;;;36.00;30.67;;;;;11.92;78.89;101462.91;5014757;28;45441;-70
2023/04/29 03:29:01;;;;;;;;;36.33;30.67;;;;;11.88;78.96;101461.22;5014983;28;45347;-70
2023/04/29 03:31:27;;;;;;;;;32.67;28.67;;;;;11.89;78.43;101467.34;5014800;28;45886;-69
2023/04/29 03:33:52;;;;;;;;;37.33;30.33;;;;;11.91;78.15;101474.34;5015038;28;45345;-70
2023/04/29 03:36:18;;;;;;;;;36.00;31.33;;;;;11.86;78.59;101478.81;5014455;28;46434;-70
2023/04/29 03:38:44;;;;;;;;;35.67;31.33;;;;;11.68;78.90;101443.06;5014342;28;45567;-70
2023/04/29 03:41:09;;;;;;;;;37.33;30.00;;;;;11.89;78.44;101472.63;5014977;28;45298;-69
2023/04/29 03:43:35;;;;;;;;;32.67;28.67;;;;;11.92;77.44;101486.66;5014569;28;45827;-70
2023/04/29 03:46:00;;;;;;;;;38.67;33.33;;;;;11.87;78.08;101483.22;5014317;28;45534;-69
2023/04/29 03:48:25;;;;;;;;;30.33;29.67;;;;;11.82;78.74;101493.84;5015990;27;45281;-69
2023/04/29 03:50:51;;;;;;;;;32.33;27.33;;;;;11.82;78.34;101482.41;5014038;28;45288;-69
2023/04/29 03:53:17;;;;;;;;;39.33;30.33;;;;;11.84;78.17;101480.63;5014508;28;45484;-69
2023/04/29 03:55:42;;;;;;;;;38.33;33.00;;;;;11.90;78.32;101500.75;5014322;28;46439;-69
2023/04/29 03:58:08;;;;;;;;;30.67;27.33;;;;;11.81;78.34;101478.03;5014384;28;45232;-70
2023/04/29 04:00:33;;;;;;;;;37.00;31.00;;;;;11.90;78.19;101498.13;5014390;28;45442;-69
2023/04/29 04:02:59;;;;;;;;;34.67;31.33;;;;;11.86;78.08;101494.66;5014556;28;45387;-70
2023/04/29 04:05:25;;;;;;;;;26.00;26.00;;;;;11.84;78.25;101486.75;5015591;27;46113;-70
2023/04/29 04:07:51;;;;;;;;;40.33;33.00;;;;;11.90;78.03;101495.50;5014145;28;45431;-69
2023/04/29 04:10:17;;;;;;;;;41.67;33.67;;;;;11.85;78.17;101485.88;5013887;28;45430;-70
2023/04/29 04:12:42;;;;;;;;;33.67;30.33;;;;;11.85;78.85;101483.22;5014239;28;45386;-69
2023/04/29 04:15:08;;;;;;;;;39.67;32.33;;;;;11.89;78.67;101493.72;5013675;28;47229;-70
2023/04/29 04:17:33;;;;;;;;;35.00;29.00;;;;;11.81;77.97;101483.31;5013951;28;45473;-70
2023/04/29 04:19:58;;;;;;;;;37.67;31.00;;;;;11.83;78.13;101492.91;5014170;28;45389;-70
2023/04/29 04:22:24;;;;;;;;;27.00;26.00;;;;;11.79;77.21;101485.97;5014235;28;45442;-70
2023/04/29 04:24:49;;;;;;;;;36.33;31.00;;;;;11.83;78.04;101494.69;5013402;28;46707;-70
2023/04/29 04:27:14;;;;;;;;;38.33;30.00;;;;;11.88;76.68;101500.78;5013738;28;45434;-70
2023/04/29 04:29:40;;;;;;;;;26.33;25.33;;;;;11.84;75.67;101510.50;4996240;28;45350;-70
2023/04/29 04:32:05;;;;;;;;;35.33;30.33;;;;;11.75;76.76;101501.84;5014044;28;45444;-70
2023/04/29 04:34:31;;;;;;;;;36.67;31.00;;;;;11.77;77.62;101508.00;5013805;28;45756;-70
2023/04/29 04:36:56;;;;;;;;;33.33;25.67;;;;;11.72;77.27;101507.19;5013686;28;45283;-70
2023/04/29 04:39:22;;;;;;;;;32.33;30.00;;;;;11.77;78.09;101516.78;5013886;28;45724;-70
2023/04/29 04:41:47;;;;;;;;;32.33;27.67;;;;;11.77;77.96;101513.28;5013963;28;45419;-70
2023/04/29 04:44:13;;;;;;;;;27.00;24.33;;;;;11.74;78.12;101513.31;5013347;28;45457;-70
2023/04/29 04:46:38;;;;;;;;;23.33;23.33;;;;;11.78;76.94;101520.31;5013406;28;45287;-69
2023/04/29 04:49:03;;;;;;;;;28.33;24.67;;;;;11.84;76.54;101536.03;5013754;28;45300;-69
2023/04/29 04:51:29;;;;;;;;;36.33;28.33;;;;;11.79;76.48;101527.31;5013941;28;45289;-69
2023/04/29 04:53:54;;;;;;;;;26.00;25.67;;;;;11.71;76.24;101511.59;5013300;28;45351;-70
2023/04/29 04:56:20;;;;;;;;;32.00;25.00;;;;;11.79;76.98;101532.56;5013438;28;45268;-69
2023/04/29 04:58:46;;;;;;;;;24.00;23.33;;;;;11.81;76.66;101534.31;5013497;28;45277;-72
2023/04/29 05:01:11;;;;;;;;;27.00;20.33;;;;;11.81;76.44;101544.00;5013387;28;45493;-72
2023/04/29 05:03:36;;;;;;;;;26.67;26.33;;;;;11.70;76.66;101536.22;5014306;28;46390;-72
2023/04/29 05:06:02;;;;;;;;;30.00;26.33;;;;;11.67;77.10;101537.13;5016241;28;45154;-72
2023/04/29 05:08:27;;;;;;;;;25.33;22.67;;;;;11.80;77.46;101566.00;5016532;28;45245;-72
2023/04/29 05:10:52;;;;;;;;;24.00;23.67;;;;;11.83;76.39;101569.44;5016662;28;45660;-73
2023/04/29 05:13:18;;;;;;;;;23.00;19.33;;;;;11.85;76.89;101567.69;5016375;28;46455;-72
2023/04/29 05:15:44;;;;;;;;;27.67;23.33;;;;;11.86;77.04;101571.19;5016694;28;45414;-72
2023/04/29 05:18:10;;;;;;;;;26.00;23.00;;;;;11.84;76.09;101571.19;5016424;28;45306;-71
2023/04/29 05:20:36;;;;;;;;;24.67;20.33;;;;;11.83;76.48;101564.16;5016577;28;45716;-71
2023/04/29 05:23:02;;;;;;;;;25.33;22.33;;;;;11.81;77.63;101559.84;5016258;28;45940;-71
2023/04/29 05:25:28;;;;;;;;;23.00;20.33;;;;;11.75;76.46;101550.25;5016040;28;45441;-71
2023/04/29 05:27:53;;;;;;;;;28.33;19.67;;;;;11.82;76.14;101569.47;5016513;28;45314;-71
2023/04/29 05:30:19;;;;;;;;;26.00;22.33;;;;;11.80;76.69;101560.72;5016240;28;45548;-71
2023/04/29 05:32:44;;;;;;;;;31.00;29.00;;;;;11.95;76.86;101586.03;5016135;28;45618;-70
2023/04/29 05:35:10;;;;;;;;;26.33;24.00;;;;;11.95;77.18;101588.66;5016122;28;45178;-69
2023/04/29 05:37:36;;;;;;;;;26.67;23.00;;;;;11.90;76.26;101585.22;5016257;28;45528;-69
2023/04/29 05:40:01;;;;;;;;;18.67;16.33;;;;;11.89;76.26;101589.59;5016288;28;45302;-69
2023/04/29 05:42:27;;;;;;;;;23.67;22.00;;;;;11.90;76.06;101578.16;5016028;28;46550;-69
2023/04/29 05:44:52;;;;;;;;;27.67;22.33;;;;;11.97;76.88;101592.19;5015688;28;45395;-69
2023/04/29 05:47:17;;;;;;;;;30.67;26.33;;;;;11.99;77.16;101593.88;5016133;28;45449;-69
2023/04/29 05:49:43;;;;;;;;;28.00;25.00;;;;;12.02;74.75;101598.25;5016002;28;45339;-68
2023/04/29 05:52:08;;;;;;;;;28.67;24.67;;;;;11.98;75.81;101593.91;5016178;28;46143;-68
2023/04/29 05:54:34;;;;;;;;;27.67;26.00;;;;;12.00;75.98;101600.03;5015727;28;45481;-68
2023/04/29 05:57:03;;;;;;;;;31.67;28.33;;;;;12.02;76.75;101598.25;5016000;28;45461;-68
2023/04/29 05:59:32;;;;;;;;;27.67;25.67;;;;;11.85;76.23;101572.09;5016285;28;45320;-68
2023/04/29 06:01:58;;;;;;;;;30.00;24.67;;;;;12.11;75.62;101618.34;5015708;28;45337;-68
2023/04/29 06:04:24;;;;;;;;;27.67;27.33;;;;;12.10;75.03;101619.25;5015779;28;45345;-68
2023/04/29 06:06:51;;;;;;;;;31.00;28.67;;;;;12.04;76.24;101604.38;5015885;28;45435;-68
2023/04/29 06:09:17;;;;;;;;;30.67;24.67;;;;;12.08;75.72;101606.06;5015712;28;45304;-68
2023/04/29 06:11:43;;;;;;;;;34.67;28.33;;;;;12.13;75.68;101609.53;5015377;28;47204;-68
2023/04/29 06:14:09;;;;;;;;;27.33;27.33;;;;;12.21;76.05;101627.00;5015159;28;45255;-68
2023/04/29 06:16:35;;;;;;;;;32.00;28.00;;;;;12.13;74.85;101613.94;5015851;28;45364;-68
2023/04/29 06:19:00;;;;;;;;;29.67;28.67;;;;;12.15;74.79;101623.56;5015974;28;45249;-68
2023/04/29 06:21:27;;;;;;;;;32.67;29.67;;;;;12.03;74.11;101610.56;5015445;28;46145;-69
2023/04/29 06:23:52;;;;;;;;;35.33;30.00;;;;;12.08;75.74;101631.59;5015633;28;45365;-69
2023/04/29 06:26:19;;;;;;;;;40.67;32.33;;;;;11.83;75.54;101590.56;5015323;28;45411;-70
2023/04/29 06:28:45;;;;;;;;;34.33;32.00;;;;;12.05;76.55;101642.22;5015770;28;45386;-68
2023/04/29 06:31:11;;;;;;;;;38.00;31.00;;;;;12.01;76.00;101636.13;5015093;28;47126;-68
2023/04/29 06:33:36;;;;;;;;;36.00;31.00;;;;;11.98;75.90;101633.50;5015394;28;45308;-68
2023/04/29 06:36:02;;;;;;;;;35.67;30.67;;;;;11.98;77.08;101634.38;5015481;28;45429;-67
2023/04/29 06:38:27;;;;;;;;;41.67;33.00;;;;;12.08;76.11;101642.16;5015484;28;45466;-68
2023/04/29 06:40:52;;;;;;;;;39.00;33.67;;;;;11.97;75.85;101630.00;5015018;28;45417;-68
2023/04/29 06:43:18;;;;;;;;;40.00;33.33;;;;;12.02;74.36;101646.66;5015280;28;45318;-68
2023/04/29 06:45:46;;;;;;;;;41.67;33.00;;;;;12.04;74.62;101651.91;5015154;28;45572;-68
2023/04/29 06:48:12;;;;;;;;;30.00;30.00;;;;;12.01;75.40;101651.94;5015518;28;45238;-68
2023/04/29 06:50:37;;;;;;;;;33.00;29.67;;;;;12.05;73.51;101653.63;5015123;28;45307;-70
2023/04/29 06:53:02;;;;;;;;;32.33;26.33;;;;;11.98;73.19;101651.97;5014480;28;45362;-68
2023/04/29 06:55:27;;;;;;;;;31.00;29.00;;;;;12.09;73.39;101665.03;5015238;28;45436;-70
2023/04/29 06:57:53;;;;;;;;;32.33;29.33;;;;;11.93;73.17;101648.50;5015302;28;45474;-69
2023/04/29 07:00:20;;;;;;;;;28.33;27.33;;;;;11.92;72.55;101644.09;5015059;28;46083;-69
2023/04/29 07:02:45;;;;;;;;;24.00;22.67;;;;;12.14;71.98;101679.91;5015007;28;45492;-69
2023/04/29 07:05:11;;;;;;;;;23.33;22.67;;;;;12.19;72.12;101682.47;5015165;28;45493;-67
2023/04/29 07:07:36;;;;;;;;;27.33;24.67;;;;;12.17;71.92;101685.16;5015516;28;45346;-67
2023/04/29 07:10:01;;;;;;;;;25.00;24.00;;;;;11.99;71.95;101646.66;5014789;28;46306;-68
2023/04/29 07:12:27;;;;;;;;;25.00;20.33;;;;;12.21;71.39;101683.31;5014940;28;45381;-67
2023/04/29 07:14:52;;;;;;;;;24.67;24.00;;;;;12.31;71.65;101687.56;5015268;28;45396;-71
2023/04/29 07:17:18;;;;;;;;;20.00;18.00;;;;;12.29;70.28;101685.88;5014953;28;45378;-68
2023/04/29 07:19:43;;;;;;;;;23.00;18.33;;;;;12.35;70.56;101698.97;5014342;28;46623;-69
2023/04/29 07:22:08;;;;;;;;;25.33;23.67;;;;;12.13;69.98;101654.41;5015020;28;45703;-68
2023/04/29 07:24:34;;;;;;;;;28.00;20.67;;;;;12.26;69.94;101676.22;5014953;28;45380;-70
2023/04/29 07:26:59;;;;;;;;;26.67;17.00;;;;;12.12;69.55;101664.97;5013887;28;45212;-70
2023/04/29 07:29:24;;;;;;;;;30.00;23.33;;;;;12.34;68.94;101708.69;5014679;28;45909;-69
2023/04/29 07:31:50;;;;;;;;;30.00;27.67;;;;;12.30;70.47;101706.06;5014756;28;45476;-70
2023/04/29 07:34:15;;;;;;;;;21.67;20.33;;;;;12.31;70.91;101711.34;5014732;28;45430;-70
2023/04/29 07:36:40;;;;;;;;;31.00;26.33;;;;;12.29;70.00;101697.28;5014814;28;45376;-70
2023/04/29 07:39:06;;;;;;;;;34.00;27.00;;;;;12.29;70.36;101702.56;5014602;28;45427;-70
2023/04/29 07:41:31;;;;;;;;;35.33;30.67;;;;;12.29;69.87;101701.72;5016299;27;45294;-70
2023/04/29 07:43:57;;;;;;;;;28.33;27.00;;;;;12.39;70.64;101723.56;5014086;28;45193;-69
2023/04/29 07:46:22;;;;;;;;;30.00;28.00;;;;;12.38;69.43;101725.34;5014657;28;45268;-69
2023/04/29 07:48:48;;;;;;;;;36.67;31.00;;;;;12.36;69.64;101732.41;5014262;28;47699;-72
2023/04/29 07:51:14;;;;;;;;;33.33;28.00;;;;;12.25;69.31;101726.41;5015137;28;45370;-70
2023/04/29 07:53:40;;;;;;;;;34.00;29.33;;;;;12.21;68.83;101722.06;5014549;28;45862;-70
2023/04/29 07:56:06;;;;;;;;;34.33;28.67;;;;;12.15;69.86;101726.50;5014406;28;45423;-70
2023/04/29 07:58:32;;;;;;;;;33.00;27.00;;;;;12.14;68.74;101735.34;5014202;28;45545;-70
2023/04/29 08:01:05;;;;;;;;;29.33;27.00;;;;;12.11;69.49;101735.41;5014142;28;45404;-70
2023/04/29 08:03:31;;;;;;;;;32.33;30.67;;;;;12.16;69.44;101748.53;5014439;28;45359;-70
2023/04/29 08:06:01;;;;;;;;;26.00;25.67;;;;;12.16;69.52;101749.41;5014129;28;45319;-70
2023/04/29 08:08:26;;;;;;;;;27.33;24.67;;;;;12.20;69.89;101758.16;5014056;28;46702;-70
2023/04/29 08:10:51;;;;;;;;;34.00;28.33;;;;;12.21;69.07;101749.31;5013744;28;45322;-70
2023/04/29 08:13:16;;;;;;;;;27.33;26.33;;;;;12.22;69.20;101751.09;5014083;28;45395;-70
2023/04/29 08:15:42;;;;;;;;;35.67;30.00;;;;;12.10;68.52;101740.69;5014541;28;45330;-70
2023/04/29 08:18:07;;;;;;;;;28.00;26.33;;;;;12.11;68.95;101745.06;5013725;28;47498;-70
2023/04/29 08:20:32;;;;;;;;;32.33;28.67;;;;;12.05;68.80;101737.22;5014102;28;45257;-70
2023/04/29 08:22:59;;;;;;;;;25.33;24.67;;;;;12.08;69.42;101745.09;5013954;28;45632;-70
2023/04/29 08:25:25;;;;;;;;;36.67;27.00;;;;;12.04;68.16;101741.66;5013922;28;45350;-70
2023/04/29 08:27:51;;;;;;;;;29.33;26.00;;;;;12.18;69.13;101763.47;5013673;28;46652;-70
2023/04/29 08:30:17;;;;;;;;;24.00;22.67;;;;;12.14;68.98;101745.91;5013634;28;45245;-70
2023/04/29 08:32:42;;;;;;;;;29.33;27.33;;;;;12.33;68.94;101769.44;5013832;28;45246;-69
2023/04/29 08:35:08;;;;;;;;;32.33;28.33;;;;;12.33;69.46;101757.09;5013955;28;45443;-70
2023/04/29 08:37:33;;;;;;;;;28.67;26.67;;;;;12.42;68.38;101755.25;5022113;28;46746;-71
2023/04/29 08:39:58;;;;;;;;;30.33;23.67;;;;;12.35;67.84;101760.56;5036668;28;45408;-70
2023/04/29 08:42:33;;;;;;;;;31.33;29.67;;;;;12.42;67.72;101768.44;5036458;28;45261;-70
2023/04/29 08:45:00;;;;;;;;;28.00;27.33;;;;;12.35;69.55;101760.56;5036464;27;45245;-69
2023/04/29 08:47:29;;;;;;;;;31.00;26.00;;;;;12.45;69.39;101761.34;5036374;27;45477;-70
2023/04/29 08:49:55;;;;;;;;;24.00;20.33;;;;;12.52;68.06;101760.34;5036246;27;45477;-70
2023/04/29 08:52:20;;;;;;;;;26.67;21.00;;;;;12.59;67.46;101769.06;5036676;27;45253;-70
2023/04/29 08:54:45;;;;;;;;;27.33;24.00;;;;;12.62;67.37;101770.78;5036778;28;45346;-70
2023/04/29 08:57:12;;;;;;;;;24.67;21.33;;;;;12.67;66.95;101776.88;5036047;28;45509;-67
2023/04/29 08:59:37;;;;;;;;;29.00;26.67;;;;;12.62;65.86;101768.13;5036536;27;45391;-69
2023/04/29 09:02:08;;;;;;;;;23.67;22.33;;;;;12.64;66.79;101785.72;5036098;28;45448;-70
2023/04/29 09:04:46;;;;;;;;;29.00;25.00;;;;;12.62;66.32;101776.94;5036862;28;45497;-70
2023/04/29 09:07:12;;;;;;;;;22.33;22.33;;;;;12.56;66.79;101765.59;5036032;28;47444;-70
2023/04/29 09:09:39;;;;;;;;;26.00;22.00;;;;;12.63;67.17;101780.44;5036322;28;45381;-70
2023/04/29 09:12:04;;;;;;;;;27.00;23.00;;;;;12.71;66.22;101778.56;5036142;28;45440;-69
2023/04/29 09:14:33;;;;;;;;;26.33;24.67;;;;;12.77;67.06;101790.84;5036610;28;45565;-71
2023/04/29 09:16:59;;;;;;;;;26.33;22.67;;;;;12.80;66.91;101791.63;5035704;28;45661;-70
2023/04/29 09:19:35;;;;;;;;;30.00;25.00;;;;;12.86;67.32;101806.53;5036255;28;45401;-70
2023/04/29 09:22:01;;;;;;;;;28.33;24.67;;;;;12.87;67.75;101788.00;5036480;28;45294;-70
2023/04/29 09:24:29;;;;;;;;;29.33;23.00;;;;;12.90;66.58;101776.53;5036346;28;45461;-70
2023/04/29 09:26:54;;;;;;;;;31.67;28.00;;;;;12.98;65.92;101787.84;5035903;28;46699;-71
2023/04/29 09:29:20;;;;;;;;;33.33;26.33;;;;;13.07;66.14;101800.06;5036099;28;45224;-70
2023/04/29 09:31:46;;;;;;;;;24.00;23.00;;;;;13.00;65.94;101780.75;5036103;28;45385;-70
2023/04/29 09:34:11;;;;;;;;;23.00;21.33;;;;;13.07;64.89;101787.69;5036612;28;45322;-70
2023/04/29 09:36:41;;;;;;;;;30.67;23.00;;;;;13.17;65.99;101795.47;5035813;28;45636;-70
2023/04/29 09:39:19;;;;;;;;;26.67;22.67;;;;;13.21;64.72;101794.53;5035905;28;45356;-70
2023/04/29 09:41:53;;;;;;;;;31.00;22.00;;;;;13.34;65.00;101796.09;5036932;27;45313;-70
2023/04/29 09:44:24;;;;;;;;;28.00;23.67;;;;;13.45;64.92;101795.00;5036131;28;45465;-71
2023/04/29 09:47:09;;;;;;;;;26.33;23.67;;;;;13.57;63.66;101792.16;5034779;28;47290;-70
2023/04/29 09:49:44;;;;;;;;;25.67;22.67;;;;;13.79;65.20;101805.00;5034857;28;45878;-70
2023/04/29 09:52:15;;;;;;;;;41.00;35.33;;;;;13.92;63.94;101794.13;5035866;28;45366;-70
2023/04/29 09:54:42;;;;;;;;;25.00;22.67;;;;;14.11;63.47;101799.06;5036050;28;45389;-70
2023/04/29 09:57:09;;;;;;;;;26.67;21.67;;;;;14.19;62.48;101785.63;5035055;28;45466;-71
2023/04/29 09:59:37;;;;;;;;;25.67;23.33;;;;;14.28;63.65;101788.97;5034807;28;45308;-70
2023/04/29 10:02:24;;;;;;;;;26.00;20.67;;;;;14.49;62.78;101796.50;5035579;28;45390;-71
2023/04/29 10:04:56;;;;;;;;;29.00;23.00;;;;;14.55;62.02;101794.59;5035667;28;45303;-71
2023/04/29 10:07:22;;;;;;;;;27.33;23.00;;;;;14.67;60.52;101797.88;5035297;28;46988;-70
2023/04/29 10:09:48;;;;;;;;;31.67;25.67;;;;;14.68;61.67;101803.19;5035507;28;45380;-70
2023/04/29 10:12:19;;;;;;;;;27.33;24.33;;;;;14.73;60.84;101805.72;5017576;28;45413;-70
2023/04/29 10:15:12;;;;;;;;;29.00;25.00;;;;;14.71;61.30;101804.84;5035621;28;45417;-70
2023/04/29 10:18:16;;;;;;;;;26.67;23.67;;;;;14.71;60.37;101810.16;5035158;28;46268;-70
2023/04/29 10:20:47;;;;;;;;;23.00;22.33;;;;;14.65;59.71;101808.50;5035230;28;45339;-70
2023/04/29 10:23:14;;;;;;;;;26.67;22.67;;;;;14.58;58.72;101810.41;5035273;28;45434;-71
2023/04/29 10:25:41;;;;;;;;;31.67;28.33;;;;;14.48;60.64;101808.00;5035482;28;45500;-70
2023/04/29 10:28:15;;;;;;;;;26.33;25.00;;;;;14.55;59.69;101821.09;5034945;28;46168;-70
2023/04/29 10:30:43;;;;;;;;;23.67;22.00;;;;;14.50;60.15;101809.72;5035101;28;45439;-70
2023/04/29 10:33:11;;;;;;;;;28.67;24.67;;;;;14.53;59.66;101814.06;5035359;28;45306;-70
2023/04/29 10:35:36;;;;;;;;;29.00;28.33;;;;;14.54;58.78;101819.34;5035153;28;45446;-71
2023/04/29 10:38:10;;;;;;;;;34.00;28.00;;;;;14.55;59.33;101814.91;5034784;28;46122;-70
2023/04/29 10:40:41;;;;;;;;;29.67;29.33;;;;;14.56;58.68;101785.72;5035217;28;45383;-70
2023/04/29 10:43:06;;;;;;;;;26.67;24.67;;;;;14.87;59.29;101802.72;5034628;28;45311;-70
2023/04/29 10:45:35;;;;;;;;;27.00;23.00;;;;;15.18;58.29;101808.16;5035194;28;45359;-70
2023/04/29 10:48:01;;;;;;;;;29.67;27.00;;;;;15.51;58.00;101824.16;5034999;28;45467;-72
2023/04/29 10:50:31;;;;;;;;;35.67;28.00;;;;;15.82;56.69;101818.03;5035095;27;45485;-71
2023/04/29 10:52:57;;;;;;;;;33.00;27.00;;;;;16.18;55.36;101818.78;5034987;28;45351;-71
2023/04/29 10:55:23;;;;;;;;;29.33;27.33;;;;;16.27;53.10;101807.00;5035303;28;45449;-71
2023/04/29 10:57:52;;;;;;;;;33.67;29.67;;;;;16.38;52.87;101814.66;5034550;28;46714;-71
2023/04/29 11:00:41;;;;;;;;;30.00;22.67;;;;;16.38;52.82;101817.31;5034359;28;45332;-71
2023/04/29 11:03:07;;;;;;;;;30.00;28.67;;;;;16.26;53.20;101823.00;5034298;28;45370;-71
2023/04/29 11:05:34;;;;;;;;;29.67;26.33;;;;;16.07;54.76;101812.03;5035115;28;45131;-71
2023/04/29 11:08:22;;;;;;;;;33.33;25.33;;;;;15.86;54.62;101809.06;5036886;27;46585;-71